sensor_id;sensor_type;location;lat;lon;timestamp;temperature;humidity
13652;DHT22;6899;51.546;6.912;2022-08-19T00:00:10;16.90;99.90
13652;DHT22;6899;51.546;6.912;2022-08-19T00:02:41;17.00;99.90
13652;DHT22;6899;51.546;6.912;2022-08-19T00:05:10;17.00;99.90
13652;DHT22;6899;51.546;6.912;2022-08-19T00:07:40;17.00;99.90
13652;DHT22;6899;51.546;6.912;2022-08-19T00:10:13;17.00;99.90
13652;DHT22;6899;51.546;6.912;2022-08-19T00:12:40;17.00;99.90
13652;DHT22;6899;51.546;6.912;2022-08-19T00:15:11;16.90;99.90
13652;DHT22;6899;51.546;6.912;2022-08-19T00:17:43;16.90;99.90
13652;DHT22;6899;51.546;6.912;2022-08-19T00:20:12;16.90;99.90
13652;DHT22;6899;51.546;6.912;2022-08-19T00:22:43;16.80;99.90
13652;DHT22;6899;51.546;6.912;2022-08-19T00:25:11;16.90;99.90
13652;DHT22;6899;51.546;6.912;2022-08-19T00:27:39;16.90;99.90
13652;DHT22;6899;51.546;6.912;2022-08-19T00:30:07;16.90;99.90
13652;DHT22;6899;51.546;6.912;2022-08-19T00:32:34;16.80;99.90
13652;DHT22;6899;51.546;6.912;2022-08-19T00:35:02;16.80;99.90
13652;DHT22;6899;51.546;6.912;2022-08-19T00:37:29;16.80;99.90
13652;DHT22;6899;51.546;6.912;2022-08-19T00:39:56;16.90;99.90
13652;DHT22;6899;51.546;6.912;2022-08-19T00:42:24;16.90;99.90
13652;DHT22;6899;51.546;6.912;2022-08-19T00:44:53;16.90;99.90
13652;DHT22;6899;51.546;6.912;2022-08-19T00:47:20;16.80;99.90
13652;DHT22;6899;51.546;6.912;2022-08-19T00:49:49;16.80;99.90
13652;DHT22;6899;51.546;6.912;2022-08-19T00:52:21;16.80;99.90
13652;DHT22;6899;51.546;6.912;2022-08-19T00:54:50;16.80;99.90
13652;DHT22;6899;51.546;6.912;2022-08-19T00:57:24;16.70;99.90
13652;DHT22;6899;51.546;6.912;2022-08-19T00:59:54;16.80;99.90
13652;DHT22;6899;51.546;6.912;2022-08-19T01:02:22;16.70;99.90
13652;DHT22;6899;51.546;6.912;2022-08-19T01:04:49;16.70;99.90
13652;DHT22;6899;51.546;6.912;2022-08-19T01:07:16;16.80;99.90
13652;DHT22;6899;51.546;6.912;2022-08-19T01:09:43;16.70;99.90
13652;DHT22;6899;51.546;6.912;2022-08-19T01:12:11;16.70;99.90
13652;DHT22;6899;51.546;6.912;2022-08-19T01:14:40;16.70;99.90
13652;DHT22;6899;51.546;6.912;2022-08-19T01:17:19;16.60;99.90
13652;DHT22;6899;51.546;6.912;2022-08-19T01:19:48;16.60;99.90
13652;DHT22;6899;51.546;6.912;2022-08-19T01:22:18;16.60;99.90
13652;DHT22;6899;51.546;6.912;2022-08-19T01:24:47;16.60;99.90
13652;DHT22;6899;51.546;6.912;2022-08-19T01:27:14;16.60;99.90
13652;DHT22;6899;51.546;6.912;2022-08-19T01:29:43;16.60;99.90
13652;DHT22;6899;51.546;6.912;2022-08-19T01:32:12;16.60;99.90
13652;DHT22;6899;51.546;6.912;2022-08-19T01:34:40;16.50;99.90
13652;DHT22;6899;51.546;6.912;2022-08-19T01:37:08;16.60;99.90
13652;DHT22;6899;51.546;6.912;2022-08-19T01:39:38;16.50;99.90
13652;DHT22;6899;51.546;6.912;2022-08-19T01:42:08;16.50;99.90
13652;DHT22;6899;51.546;6.912;2022-08-19T01:44:36;16.50;99.90
13652;DHT22;6899;51.546;6.912;2022-08-19T01:47:06;16.50;99.90
13652;DHT22;6899;51.546;6.912;2022-08-19T01:49:34;16.50;99.90
13652;DHT22;6899;51.546;6.912;2022-08-19T01:52:03;16.50;99.90
13652;DHT22;6899;51.546;6.912;2022-08-19T01:54:30;16.50;99.90
13652;DHT22;6899;51.546;6.912;2022-08-19T01:57:00;16.40;99.90
13652;DHT22;6899;51.546;6.912;2022-08-19T01:59:33;16.40;99.90
13652;DHT22;6899;51.546;6.912;2022-08-19T02:02:02;16.40;99.90
13652;DHT22;6899;51.546;6.912;2022-08-19T02:04:31;16.40;99.90
13652;DHT22;6899;51.546;6.912;2022-08-19T02:06:58;16.30;99.90
13652;DHT22;6899;51.546;6.912;2022-08-19T02:09:25;16.20;99.90
13652;DHT22;6899;51.546;6.912;2022-08-19T02:11:52;16.30;99.90
13652;DHT22;6899;51.546;6.912;2022-08-19T02:14:22;16.20;99.90
13652;DHT22;6899;51.546;6.912;2022-08-19T02:16:50;16.10;99.90
13652;DHT22;6899;51.546;6.912;2022-08-19T02:19:17;16.10;99.90
13652;DHT22;6899;51.546;6.912;2022-08-19T02:21:44;16.10;99.90
13652;DHT22;6899;51.546;6.912;2022-08-19T02:24:11;16.20;99.90
13652;DHT22;6899;51.546;6.912;2022-08-19T02:26:38;16.20;99.90
13652;DHT22;6899;51.546;6.912;2022-08-19T02:29:05;16.20;99.90
13652;DHT22;6899;51.546;6.912;2022-08-19T02:31:32;16.20;99.90
13652;DHT22;6899;51.546;6.912;2022-08-19T02:34:00;16.20;99.90
13652;DHT22;6899;51.546;6.912;2022-08-19T02:36:27;16.20;99.90
13652;DHT22;6899;51.546;6.912;2022-08-19T02:38:54;16.20;99.90
13652;DHT22;6899;51.546;6.912;2022-08-19T02:41:25;16.20;99.90
13652;DHT22;6899;51.546;6.912;2022-08-19T02:43:55;16.10;99.90
13652;DHT22;6899;51.546;6.912;2022-08-19T02:46:26;16.10;99.90
13652;DHT22;6899;51.546;6.912;2022-08-19T02:48:56;16.10;99.90
13652;DHT22;6899;51.546;6.912;2022-08-19T02:51:27;16.20;99.90
13652;DHT22;6899;51.546;6.912;2022-08-19T02:53:54;16.20;99.90
13652;DHT22;6899;51.546;6.912;2022-08-19T02:56:22;16.20;99.90
13652;DHT22;6899;51.546;6.912;2022-08-19T02:58:50;16.20;99.90
13652;DHT22;6899;51.546;6.912;2022-08-19T03:01:22;16.20;99.90
13652;DHT22;6899;51.546;6.912;2022-08-19T03:03:49;16.20;99.90
13652;DHT22;6899;51.546;6.912;2022-08-19T03:06:17;16.20;99.90
13652;DHT22;6899;51.546;6.912;2022-08-19T03:08:47;16.20;99.90
13652;DHT22;6899;51.546;6.912;2022-08-19T03:11:17;16.20;99.90
13652;DHT22;6899;51.546;6.912;2022-08-19T03:13:45;16.20;99.90
13652;DHT22;6899;51.546;6.912;2022-08-19T03:16:12;16.20;99.90
13652;DHT22;6899;51.546;6.912;2022-08-19T03:18:39;16.20;99.90
13652;DHT22;6899;51.546;6.912;2022-08-19T03:21:07;16.10;99.90
13652;DHT22;6899;51.546;6.912;2022-08-19T03:23:35;16.10;99.90
13652;DHT22;6899;51.546;6.912;2022-08-19T03:26:05;16.10;99.90
13652;DHT22;6899;51.546;6.912;2022-08-19T03:28:33;16.10;99.90
13652;DHT22;6899;51.546;6.912;2022-08-19T03:31:02;16.20;99.90
13652;DHT22;6899;51.546;6.912;2022-08-19T03:33:30;16.20;99.90
13652;DHT22;6899;51.546;6.912;2022-08-19T03:36:03;16.10;99.90
13652;DHT22;6899;51.546;6.912;2022-08-19T03:38:31;16.10;99.90
13652;DHT22;6899;51.546;6.912;2022-08-19T03:40:58;16.10;99.90
13652;DHT22;6899;51.546;6.912;2022-08-19T03:43:34;16.00;99.90
13652;DHT22;6899;51.546;6.912;2022-08-19T03:46:03;16.10;99.90
13652;DHT22;6899;51.546;6.912;2022-08-19T03:48:31;16.10;99.90
13652;DHT22;6899;51.546;6.912;2022-08-19T03:50:58;16.10;99.90
13652;DHT22;6899;51.546;6.912;2022-08-19T03:53:26;16.10;99.90
13652;DHT22;6899;51.546;6.912;2022-08-19T03:55:57;16.00;99.90
13652;DHT22;6899;51.546;6.912;2022-08-19T03:58:26;16.00;99.90
13652;DHT22;6899;51.546;6.912;2022-08-19T04:00:56;16.10;99.90
13652;DHT22;6899;51.546;6.912;2022-08-19T04:03:23;16.10;99.90
13652;DHT22;6899;51.546;6.912;2022-08-19T04:05:52;16.20;99.90
13652;DHT22;6899;51.546;6.912;2022-08-19T04:08:19;16.20;99.90
13652;DHT22;6899;51.546;6.912;2022-08-19T04:10:48;16.20;99.90
13652;DHT22;6899;51.546;6.912;2022-08-19T04:13:18;16.20;99.90
13652;DHT22;6899;51.546;6.912;2022-08-19T04:15:46;16.20;99.90
13652;DHT22;6899;51.546;6.912;2022-08-19T04:18:14;16.10;99.90
13652;DHT22;6899;51.546;6.912;2022-08-19T04:20:43;16.10;99.90
13652;DHT22;6899;51.546;6.912;2022-08-19T04:23:10;16.00;99.90
13652;DHT22;6899;51.546;6.912;2022-08-19T04:25:43;16.00;99.90
13652;DHT22;6899;51.546;6.912;2022-08-19T04:28:11;16.00;99.90
13652;DHT22;6899;51.546;6.912;2022-08-19T04:30:40;16.00;99.90
13652;DHT22;6899;51.546;6.912;2022-08-19T04:33:09;16.00;99.90
13652;DHT22;6899;51.546;6.912;2022-08-19T04:35:43;15.90;99.90
13652;DHT22;6899;51.546;6.912;2022-08-19T04:38:20;15.90;99.90
13652;DHT22;6899;51.546;6.912;2022-08-19T04:40:50;15.90;99.90
13652;DHT22;6899;51.546;6.912;2022-08-19T04:43:38;15.90;99.90
13652;DHT22;6899;51.546;6.912;2022-08-19T04:46:06;16.00;99.90
13652;DHT22;6899;51.546;6.912;2022-08-19T04:48:33;16.00;99.90
13652;DHT22;6899;51.546;6.912;2022-08-19T04:51:06;16.00;99.90
13652;DHT22;6899;51.546;6.912;2022-08-19T04:53:35;16.10;99.90
13652;DHT22;6899;51.546;6.912;2022-08-19T04:56:05;16.10;99.90
13652;DHT22;6899;51.546;6.912;2022-08-19T04:58:34;16.20;99.90
13652;DHT22;6899;51.546;6.912;2022-08-19T05:01:04;16.30;99.90
13652;DHT22;6899;51.546;6.912;2022-08-19T05:03:31;16.30;99.90
13652;DHT22;6899;51.546;6.912;2022-08-19T05:06:05;16.40;99.90
13652;DHT22;6899;51.546;6.912;2022-08-19T05:08:34;16.50;99.90
13652;DHT22;6899;51.546;6.912;2022-08-19T05:11:08;16.60;99.90
13652;DHT22;6899;51.546;6.912;2022-08-19T05:13:37;16.70;99.90
13652;DHT22;6899;51.546;6.912;2022-08-19T05:16:05;16.90;99.90
13652;DHT22;6899;51.546;6.912;2022-08-19T05:18:32;17.10;99.90
13652;DHT22;6899;51.546;6.912;2022-08-19T05:21:19;17.30;99.90
13652;DHT22;6899;51.546;6.912;2022-08-19T05:24:04;17.60;99.90
13652;DHT22;6899;51.546;6.912;2022-08-19T05:26:34;18.00;99.90
13652;DHT22;6899;51.546;6.912;2022-08-19T05:29:02;18.30;99.90
13652;DHT22;6899;51.546;6.912;2022-08-19T05:31:29;18.80;99.90
13652;DHT22;6899;51.546;6.912;2022-08-19T05:33:57;19.20;99.90
13652;DHT22;6899;51.546;6.912;2022-08-19T05:36:28;19.70;99.90
13652;DHT22;6899;51.546;6.912;2022-08-19T05:38:59;20.10;99.90
13652;DHT22;6899;51.546;6.912;2022-08-19T05:41:25;20.30;99.90
13652;DHT22;6899;51.546;6.912;2022-08-19T05:43:55;20.50;99.90
13652;DHT22;6899;51.546;6.912;2022-08-19T05:46:22;20.70;99.90
13652;DHT22;6899;51.546;6.912;2022-08-19T05:48:49;20.90;99.90
13652;DHT22;6899;51.546;6.912;2022-08-19T05:51:16;21.10;99.90
13652;DHT22;6899;51.546;6.912;2022-08-19T05:53:44;21.20;99.90
13652;DHT22;6899;51.546;6.912;2022-08-19T05:56:14;21.30;99.90
13652;DHT22;6899;51.546;6.912;2022-08-19T05:58:42;21.30;99.90
13652;DHT22;6899;51.546;6.912;2022-08-19T06:01:12;21.30;99.90
13652;DHT22;6899;51.546;6.912;2022-08-19T06:03:42;21.40;99.90
13652;DHT22;6899;51.546;6.912;2022-08-19T06:06:11;21.50;99.90
13652;DHT22;6899;51.546;6.912;2022-08-19T06:08:39;21.60;99.90
13652;DHT22;6899;51.546;6.912;2022-08-19T06:11:19;21.60;99.90
13652;DHT22;6899;51.546;6.912;2022-08-19T06:13:48;21.60;99.90
13652;DHT22;6899;51.546;6.912;2022-08-19T06:16:16;22.00;99.90
13652;DHT22;6899;51.546;6.912;2022-08-19T06:18:46;22.80;99.90
13652;DHT22;6899;51.546;6.912;2022-08-19T06:21:13;23.60;99.90
13652;DHT22;6899;51.546;6.912;2022-08-19T06:23:40;24.60;99.90
13652;DHT22;6899;51.546;6.912;2022-08-19T06:26:15;25.30;99.90
13652;DHT22;6899;51.546;6.912;2022-08-19T06:28:44;25.70;99.90
13652;DHT22;6899;51.546;6.912;2022-08-19T06:31:12;26.40;99.90
13652;DHT22;6899;51.546;6.912;2022-08-19T06:33:40;26.60;99.90
13652;DHT22;6899;51.546;6.912;2022-08-19T06:36:08;26.70;99.90
13652;DHT22;6899;51.546;6.912;2022-08-19T06:38:42;26.80;99.90
13652;DHT22;6899;51.546;6.912;2022-08-19T06:41:09;26.80;99.90
13652;DHT22;6899;51.546;6.912;2022-08-19T06:43:37;27.20;99.90
13652;DHT22;6899;51.546;6.912;2022-08-19T06:46:10;27.70;99.90
13652;DHT22;6899;51.546;6.912;2022-08-19T06:48:38;28.20;99.90
13652;DHT22;6899;51.546;6.912;2022-08-19T06:51:05;28.30;99.90
13652;DHT22;6899;51.546;6.912;2022-08-19T06:53:33;28.80;99.50
13652;DHT22;6899;51.546;6.912;2022-08-19T06:56:00;29.70;95.20
13652;DHT22;6899;51.546;6.912;2022-08-19T06:58:28;30.00;91.10
13652;DHT22;6899;51.546;6.912;2022-08-19T07:00:59;30.30;85.40
13652;DHT22;6899;51.546;6.912;2022-08-19T07:03:29;30.80;85.50
13652;DHT22;6899;51.546;6.912;2022-08-19T07:05:58;31.00;77.60
13652;DHT22;6899;51.546;6.912;2022-08-19T07:08:24;31.00;80.50
13652;DHT22;6899;51.546;6.912;2022-08-19T07:10:52;31.20;76.00
13652;DHT22;6899;51.546;6.912;2022-08-19T07:13:21;31.10;76.10
13652;DHT22;6899;51.546;6.912;2022-08-19T07:15:48;31.10;74.30
13652;DHT22;6899;51.546;6.912;2022-08-19T07:18:20;30.40;74.00
13652;DHT22;6899;51.546;6.912;2022-08-19T07:20:48;30.20;81.40
13652;DHT22;6899;51.546;6.912;2022-08-19T07:23:15;30.40;77.40
13652;DHT22;6899;51.546;6.912;2022-08-19T07:25:42;29.60;80.20
13652;DHT22;6899;51.546;6.912;2022-08-19T07:28:09;29.90;84.30
13652;DHT22;6899;51.546;6.912;2022-08-19T07:30:37;29.60;80.50
13652;DHT22;6899;51.546;6.912;2022-08-19T07:33:12;29.30;85.40
13652;DHT22;6899;51.546;6.912;2022-08-19T07:35:40;28.80;89.90
13652;DHT22;6899;51.546;6.912;2022-08-19T07:38:07;27.90;93.00
13652;DHT22;6899;51.546;6.912;2022-08-19T07:40:34;26.90;99.40
13652;DHT22;6899;51.546;6.912;2022-08-19T07:43:01;26.30;99.90
13652;DHT22;6899;51.546;6.912;2022-08-19T07:45:28;26.00;99.90
13652;DHT22;6899;51.546;6.912;2022-08-19T07:47:55;26.50;99.90
13652;DHT22;6899;51.546;6.912;2022-08-19T07:50:22;27.10;99.90
13652;DHT22;6899;51.546;6.912;2022-08-19T07:52:51;28.50;99.90
13652;DHT22;6899;51.546;6.912;2022-08-19T07:55:25;28.80;97.90
13652;DHT22;6899;51.546;6.912;2022-08-19T07:57:55;29.40;96.60
13652;DHT22;6899;51.546;6.912;2022-08-19T08:00:22;29.20;93.40
13652;DHT22;6899;51.546;6.912;2022-08-19T08:02:49;28.70;91.80
13652;DHT22;6899;51.546;6.912;2022-08-19T08:05:16;29.00;95.50
13652;DHT22;6899;51.546;6.912;2022-08-19T08:08:02;29.60;92.30
13652;DHT22;6899;51.546;6.912;2022-08-19T08:10:47;30.10;90.10
13652;DHT22;6899;51.546;6.912;2022-08-19T08:13:13;30.50;84.40
13652;DHT22;6899;51.546;6.912;2022-08-19T08:15:41;29.70;85.10
13652;DHT22;6899;51.546;6.912;2022-08-19T08:18:10;29.70;92.80
13652;DHT22;6899;51.546;6.912;2022-08-19T08:20:37;30.00;91.70
13652;DHT22;6899;51.546;6.912;2022-08-19T08:23:06;30.10;83.80
13652;DHT22;6899;51.546;6.912;2022-08-19T08:25:52;29.60;86.80
13652;DHT22;6899;51.546;6.912;2022-08-19T08:28:20;30.00;88.30
13652;DHT22;6899;51.546;6.912;2022-08-19T08:30:48;30.20;81.50
13652;DHT22;6899;51.546;6.912;2022-08-19T08:33:18;29.70;84.20
13652;DHT22;6899;51.546;6.912;2022-08-19T08:35:47;29.30;90.20
13652;DHT22;6899;51.546;6.912;2022-08-19T08:38:19;28.70;89.90
13652;DHT22;6899;51.546;6.912;2022-08-19T08:40:49;27.70;94.30
13652;DHT22;6899;51.546;6.912;2022-08-19T08:43:23;27.80;98.40
13652;DHT22;6899;51.546;6.912;2022-08-19T08:45:56;28.30;96.10
13652;DHT22;6899;51.546;6.912;2022-08-19T08:48:32;28.80;94.70
13652;DHT22;6899;51.546;6.912;2022-08-19T08:51:03;29.70;93.20
13652;DHT22;6899;51.546;6.912;2022-08-19T08:53:33;30.10;81.40
13652;DHT22;6899;51.546;6.912;2022-08-19T08:56:03;30.30;78.30
13652;DHT22;6899;51.546;6.912;2022-08-19T08:58:39;30.70;77.90
13652;DHT22;6899;51.546;6.912;2022-08-19T09:01:10;30.20;71.90
13652;DHT22;6899;51.546;6.912;2022-08-19T09:03:39;29.50;75.30
13652;DHT22;6899;51.546;6.912;2022-08-19T09:06:11;29.00;72.30
13652;DHT22;6899;51.546;6.912;2022-08-19T09:08:48;28.50;81.90
13652;DHT22;6899;51.546;6.912;2022-08-19T09:11:21;27.60;83.30
13652;DHT22;6899;51.546;6.912;2022-08-19T09:14:02;27.30;92.70
13652;DHT22;6899;51.546;6.912;2022-08-19T09:16:34;27.30;95.40
13652;DHT22;6899;51.546;6.912;2022-08-19T09:19:07;27.30;91.60
13652;DHT22;6899;51.546;6.912;2022-08-19T09:21:34;27.20;92.50
13652;DHT22;6899;51.546;6.912;2022-08-19T09:24:04;27.50;93.40
13652;DHT22;6899;51.546;6.912;2022-08-19T09:26:32;28.50;92.60
13652;DHT22;6899;51.546;6.912;2022-08-19T09:29:00;29.20;83.60
13652;DHT22;6899;51.546;6.912;2022-08-19T09:31:28;30.00;70.30
13652;DHT22;6899;51.546;6.912;2022-08-19T09:33:56;29.80;69.50
13652;DHT22;6899;51.546;6.912;2022-08-19T09:36:24;29.80;68.90
13652;DHT22;6899;51.546;6.912;2022-08-19T09:38:52;29.50;71.60
13652;DHT22;6899;51.546;6.912;2022-08-19T09:41:22;29.30;66.60
13652;DHT22;6899;51.546;6.912;2022-08-19T09:43:53;29.10;71.30
13652;DHT22;6899;51.546;6.912;2022-08-19T09:46:22;29.50;73.10
13652;DHT22;6899;51.546;6.912;2022-08-19T09:48:50;29.90;69.70
13652;DHT22;6899;51.546;6.912;2022-08-19T09:51:20;30.10;74.70
13652;DHT22;6899;51.546;6.912;2022-08-19T09:53:47;30.40;73.20
13652;DHT22;6899;51.546;6.912;2022-08-19T09:56:21;29.40;71.50
13652;DHT22;6899;51.546;6.912;2022-08-19T09:58:48;29.30;71.30
13652;DHT22;6899;51.546;6.912;2022-08-19T10:01:17;29.70;74.60
13652;DHT22;6899;51.546;6.912;2022-08-19T10:03:48;29.80;72.20
13652;DHT22;6899;51.546;6.912;2022-08-19T10:06:15;29.10;69.00
13652;DHT22;6899;51.546;6.912;2022-08-19T10:08:43;28.90;77.10
13652;DHT22;6899;51.546;6.912;2022-08-19T10:11:10;29.00;77.40
13652;DHT22;6899;51.546;6.912;2022-08-19T10:13:41;29.10;75.40
13652;DHT22;6899;51.546;6.912;2022-08-19T10:16:10;28.70;76.50
13652;DHT22;6899;51.546;6.912;2022-08-19T10:18:39;28.40;74.50
13652;DHT22;6899;51.546;6.912;2022-08-19T10:21:10;28.30;78.30
13652;DHT22;6899;51.546;6.912;2022-08-19T10:23:38;27.80;81.50
13652;DHT22;6899;51.546;6.912;2022-08-19T10:26:06;27.40;84.10
13652;DHT22;6899;51.546;6.912;2022-08-19T10:28:36;27.20;91.10
13652;DHT22;6899;51.546;6.912;2022-08-19T10:31:06;27.30;92.80
13652;DHT22;6899;51.546;6.912;2022-08-19T10:33:34;27.30;90.10
13652;DHT22;6899;51.546;6.912;2022-08-19T10:36:02;26.80;94.20
13652;DHT22;6899;51.546;6.912;2022-08-19T10:38:30;27.10;95.60
13652;DHT22;6899;51.546;6.912;2022-08-19T10:41:06;27.60;93.80
13652;DHT22;6899;51.546;6.912;2022-08-19T10:43:34;28.20;90.50
13652;DHT22;6899;51.546;6.912;2022-08-19T10:46:05;27.90;82.00
13652;DHT22;6899;51.546;6.912;2022-08-19T10:48:32;28.10;90.30
13652;DHT22;6899;51.546;6.912;2022-08-19T10:51:03;29.00;84.40
13652;DHT22;6899;51.546;6.912;2022-08-19T10:53:47;29.50;76.40
13652;DHT22;6899;51.546;6.912;2022-08-19T10:56:15;29.70;75.40
13652;DHT22;6899;51.546;6.912;2022-08-19T10:58:59;29.40;72.50
13652;DHT22;6899;51.546;6.912;2022-08-19T11:01:30;28.90;78.50
13652;DHT22;6899;51.546;6.912;2022-08-19T11:03:59;28.80;72.60
13652;DHT22;6899;51.546;6.912;2022-08-19T11:06:26;29.20;75.00
13652;DHT22;6899;51.546;6.912;2022-08-19T11:08:54;29.50;72.90
13652;DHT22;6899;51.546;6.912;2022-08-19T11:11:24;29.80;70.90
13652;DHT22;6899;51.546;6.912;2022-08-19T11:13:51;29.60;69.20
13652;DHT22;6899;51.546;6.912;2022-08-19T11:16:24;29.20;70.00
13652;DHT22;6899;51.546;6.912;2022-08-19T11:18:55;29.30;71.00
13652;DHT22;6899;51.546;6.912;2022-08-19T11:21:25;29.80;70.80
13652;DHT22;6899;51.546;6.912;2022-08-19T11:23:54;30.30;61.90
13652;DHT22;6899;51.546;6.912;2022-08-19T11:26:22;30.10;65.40
13652;DHT22;6899;51.546;6.912;2022-08-19T11:28:53;30.10;62.10
13652;DHT22;6899;51.546;6.912;2022-08-19T11:31:22;30.60;61.50
13652;DHT22;6899;51.546;6.912;2022-08-19T11:33:55;30.20;61.40
13652;DHT22;6899;51.546;6.912;2022-08-19T11:36:23;30.10;62.80
13652;DHT22;6899;51.546;6.912;2022-08-19T11:38:50;29.70;64.40
13652;DHT22;6899;51.546;6.912;2022-08-19T11:41:18;30.20;64.20
13652;DHT22;6899;51.546;6.912;2022-08-19T11:43:45;30.80;63.10
13652;DHT22;6899;51.546;6.912;2022-08-19T11:46:14;31.50;61.00
13652;DHT22;6899;51.546;6.912;2022-08-19T11:48:42;31.30;59.60
13652;DHT22;6899;51.546;6.912;2022-08-19T11:51:13;31.70;59.30
13652;DHT22;6899;51.546;6.912;2022-08-19T11:53:40;32.10;56.50
13652;DHT22;6899;51.546;6.912;2022-08-19T11:56:08;31.70;56.40
13652;DHT22;6899;51.546;6.912;2022-08-19T11:58:35;30.90;56.10
13652;DHT22;6899;51.546;6.912;2022-08-19T12:01:05;30.50;59.70
13652;DHT22;6899;51.546;6.912;2022-08-19T12:03:32;30.00;58.50
13652;DHT22;6899;51.546;6.912;2022-08-19T12:06:03;30.40;58.10
13652;DHT22;6899;51.546;6.912;2022-08-19T12:08:32;30.50;58.20
13652;DHT22;6899;51.546;6.912;2022-08-19T12:10:59;31.10;58.30
13652;DHT22;6899;51.546;6.912;2022-08-19T12:13:27;31.50;55.50
13652;DHT22;6899;51.546;6.912;2022-08-19T12:15:55;31.50;53.50
13652;DHT22;6899;51.546;6.912;2022-08-19T12:18:22;32.10;54.90
13652;DHT22;6899;51.546;6.912;2022-08-19T12:20:50;31.80;53.80
13652;DHT22;6899;51.546;6.912;2022-08-19T12:23:17;31.50;52.70
13652;DHT22;6899;51.546;6.912;2022-08-19T12:25:47;32.20;51.50
13652;DHT22;6899;51.546;6.912;2022-08-19T12:28:18;32.00;53.60
13652;DHT22;6899;51.546;6.912;2022-08-19T12:30:45;32.10;51.90
13652;DHT22;6899;51.546;6.912;2022-08-19T12:33:13;32.30;51.10
13652;DHT22;6899;51.546;6.912;2022-08-19T12:35:40;32.30;52.30
13652;DHT22;6899;51.546;6.912;2022-08-19T12:38:08;32.00;51.10
13652;DHT22;6899;51.546;6.912;2022-08-19T12:40:35;31.40;52.70
13652;DHT22;6899;51.546;6.912;2022-08-19T12:43:03;31.40;51.40
13652;DHT22;6899;51.546;6.912;2022-08-19T12:45:30;31.60;52.00
13652;DHT22;6899;51.546;6.912;2022-08-19T12:47:59;31.50;52.20
13652;DHT22;6899;51.546;6.912;2022-08-19T12:50:26;30.90;52.50
13652;DHT22;6899;51.546;6.912;2022-08-19T12:52:54;30.50;52.00
13652;DHT22;6899;51.546;6.912;2022-08-19T12:55:20;30.20;52.70
13652;DHT22;6899;51.546;6.912;2022-08-19T12:57:47;30.90;53.50
13652;DHT22;6899;51.546;6.912;2022-08-19T13:00:17;31.40;51.90
13652;DHT22;6899;51.546;6.912;2022-08-19T13:02:48;31.80;52.10
13652;DHT22;6899;51.546;6.912;2022-08-19T13:05:20;32.10;49.80
13652;DHT22;6899;51.546;6.912;2022-08-19T13:07:49;32.10;49.40
13652;DHT22;6899;51.546;6.912;2022-08-19T13:10:19;32.20;48.40
13652;DHT22;6899;51.546;6.912;2022-08-19T13:12:48;32.30;48.80
13652;DHT22;6899;51.546;6.912;2022-08-19T13:15:18;32.10;48.40
13652;DHT22;6899;51.546;6.912;2022-08-19T13:17:46;32.10;47.70
13652;DHT22;6899;51.546;6.912;2022-08-19T13:20:15;31.10;49.70
13652;DHT22;6899;51.546;6.912;2022-08-19T13:22:46;31.30;51.50
13652;DHT22;6899;51.546;6.912;2022-08-19T13:25:19;31.10;51.50
13652;DHT22;6899;51.546;6.912;2022-08-19T13:27:47;31.40;50.70
13652;DHT22;6899;51.546;6.912;2022-08-19T13:30:16;30.80;51.00
13652;DHT22;6899;51.546;6.912;2022-08-19T13:33:02;30.30;52.70
13652;DHT22;6899;51.546;6.912;2022-08-19T13:35:41;30.60;51.30
13652;DHT22;6899;51.546;6.912;2022-08-19T13:38:09;31.50;51.50
13652;DHT22;6899;51.546;6.912;2022-08-19T13:40:39;31.90;49.80
13652;DHT22;6899;51.546;6.912;2022-08-19T13:43:09;32.10;48.20
13652;DHT22;6899;51.546;6.912;2022-08-19T13:45:38;32.10;47.30
13652;DHT22;6899;51.546;6.912;2022-08-19T13:48:07;32.30;48.00
13652;DHT22;6899;51.546;6.912;2022-08-19T13:50:38;32.90;49.20
13652;DHT22;6899;51.546;6.912;2022-08-19T13:53:06;33.00;46.80
13652;DHT22;6899;51.546;6.912;2022-08-19T13:55:33;33.10;46.30
13652;DHT22;6899;51.546;6.912;2022-08-19T13:58:00;33.40;45.00
13652;DHT22;6899;51.546;6.912;2022-08-19T14:00:30;33.50;47.10
13652;DHT22;6899;51.546;6.912;2022-08-19T14:02:58;33.30;45.40
13652;DHT22;6899;51.546;6.912;2022-08-19T14:05:27;33.20;45.00
13652;DHT22;6899;51.546;6.912;2022-08-19T14:07:54;33.30;44.20
13652;DHT22;6899;51.546;6.912;2022-08-19T14:10:22;33.10;46.40
13652;DHT22;6899;51.546;6.912;2022-08-19T14:12:51;32.60;46.70
13652;DHT22;6899;51.546;6.912;2022-08-19T14:15:19;33.30;47.00
13652;DHT22;6899;51.546;6.912;2022-08-19T14:17:45;33.40;45.40
13652;DHT22;6899;51.546;6.912;2022-08-19T14:20:16;33.10;46.80
13652;DHT22;6899;51.546;6.912;2022-08-19T14:22:44;32.40;47.00
13652;DHT22;6899;51.546;6.912;2022-08-19T14:25:13;32.50;49.00
13652;DHT22;6899;51.546;6.912;2022-08-19T14:27:40;32.00;48.00
13652;DHT22;6899;51.546;6.912;2022-08-19T14:30:12;31.80;48.30
13652;DHT22;6899;51.546;6.912;2022-08-19T14:32:40;31.50;49.60
13652;DHT22;6899;51.546;6.912;2022-08-19T14:35:09;31.10;49.20
13652;DHT22;6899;51.546;6.912;2022-08-19T14:37:39;31.50;50.30
13652;DHT22;6899;51.546;6.912;2022-08-19T14:40:08;32.00;49.20
13652;DHT22;6899;51.546;6.912;2022-08-19T14:42:35;32.00;49.30
13652;DHT22;6899;51.546;6.912;2022-08-19T14:45:02;32.00;49.00
13652;DHT22;6899;51.546;6.912;2022-08-19T14:47:30;31.80;50.00
13652;DHT22;6899;51.546;6.912;2022-08-19T14:49:57;31.10;50.60
13652;DHT22;6899;51.546;6.912;2022-08-19T14:52:24;30.60;50.40
13652;DHT22;6899;51.546;6.912;2022-08-19T14:54:53;30.80;52.10
13652;DHT22;6899;51.546;6.912;2022-08-19T14:57:20;31.40;51.40
13652;DHT22;6899;51.546;6.912;2022-08-19T14:59:46;31.50;49.80
13652;DHT22;6899;51.546;6.912;2022-08-19T15:02:13;30.70;49.40
13652;DHT22;6899;51.546;6.912;2022-08-19T15:04:43;30.40;52.50
13652;DHT22;6899;51.546;6.912;2022-08-19T15:07:10;30.20;51.60
13652;DHT22;6899;51.546;6.912;2022-08-19T15:09:37;29.90;51.50
13652;DHT22;6899;51.546;6.912;2022-08-19T15:12:07;29.70;52.40
13652;DHT22;6899;51.546;6.912;2022-08-19T15:14:36;29.90;51.80
13652;DHT22;6899;51.546;6.912;2022-08-19T15:17:04;29.70;52.40
13652;DHT22;6899;51.546;6.912;2022-08-19T15:19:32;29.10;52.90
13652;DHT22;6899;51.546;6.912;2022-08-19T15:22:01;28.50;53.40
13652;DHT22;6899;51.546;6.912;2022-08-19T15:24:28;28.10;53.70
13652;DHT22;6899;51.546;6.912;2022-08-19T15:26:55;28.10;55.50
13652;DHT22;6899;51.546;6.912;2022-08-19T15:29:23;28.50;55.60
13652;DHT22;6899;51.546;6.912;2022-08-19T15:31:51;29.30;52.30
13652;DHT22;6899;51.546;6.912;2022-08-19T15:34:21;30.20;53.50
13652;DHT22;6899;51.546;6.912;2022-08-19T15:36:48;30.60;51.80
13652;DHT22;6899;51.546;6.912;2022-08-19T15:39:15;30.80;50.40
13652;DHT22;6899;51.546;6.912;2022-08-19T15:41:42;30.80;49.30
13652;DHT22;6899;51.546;6.912;2022-08-19T15:44:11;30.90;49.80
13652;DHT22;6899;51.546;6.912;2022-08-19T15:46:41;31.10;48.80
13652;DHT22;6899;51.546;6.912;2022-08-19T15:49:09;31.20;49.10
13652;DHT22;6899;51.546;6.912;2022-08-19T15:51:37;31.20;49.10
13652;DHT22;6899;51.546;6.912;2022-08-19T15:54:07;30.90;48.50
13652;DHT22;6899;51.546;6.912;2022-08-19T15:56:34;31.00;49.40